Lanesboro, Pennsylvania
Current Conditions -  °F | °C
As of 7:53 AM on Friday 28 Nov 2014 (Local Time) from KBGM Reporting Station
Light Snow Light Snow  
Wind Chill: 22°   Ceiling: 4200
Heat Index: 31°   Visibility: 7mi
Dew Point: 17°   Wind: 12mph
Humidity: 57%   Direction: 300°WNW
Pressure: 30.11"   Gusts: 20mph
Location:  41.96°N, 75.58°W
Report Text: KBGM 281253Z 30010G17KT 7SM -SN SCT013 SCT034 OVC042 M01/M08 A3011 RMK AO2 SLP218 P0000 T10061083
Loading
Personal Weather Stations






























Interactive Weather Map New forecast layout! Learn more

10-Day Weather Forecast

Advertisements
Track Severe Weather on mobile